createdAt,value
2023-07-02T00:00:07.566Z,15.20
2023-07-02T00:02:34.839Z,15.20
2023-07-02T00:05:01.882Z,15.40
2023-07-02T00:07:29.038Z,15.60
2023-07-02T00:09:55.988Z,15.70
2023-07-02T00:12:23.213Z,15.90
2023-07-02T00:14:53.986Z,15.90
2023-07-02T00:17:21.864Z,16.10
2023-07-02T00:19:52.852Z,16.20
2023-07-02T00:22:20.655Z,16.40
2023-07-02T00:24:47.710Z,16.40
2023-07-02T00:27:14.784Z,16.50
2023-07-02T00:29:41.817Z,16.70
2023-07-02T00:32:08.803Z,16.80
2023-07-02T00:34:35.909Z,16.90
2023-07-02T00:37:03.071Z,16.90
2023-07-02T00:39:30.220Z,17.00
2023-07-02T00:42:04.018Z,17.00
2023-07-02T00:44:31.448Z,17.00
2023-07-02T00:46:58.977Z,17.20
2023-07-02T00:49:26.365Z,17.40
2023-07-02T00:51:53.346Z,17.10
2023-07-02T00:54:20.471Z,17.20
2023-07-02T00:56:47.500Z,17.10
2023-07-02T00:59:14.634Z,17.10
2023-07-02T01:01:41.594Z,17.00
2023-07-02T01:04:14.093Z,16.90
2023-07-02T01:06:44.522Z,16.80
2023-07-02T01:09:12.034Z,16.90
2023-07-02T01:11:55.016Z,16.90
2023-07-02T01:14:35.023Z,16.80
2023-07-02T01:17:05.004Z,16.80
2023-07-02T01:19:54.896Z,17.00
2023-07-02T01:22:27.344Z,16.50
2023-07-02T01:24:56.064Z,16.80
2023-07-02T01:27:23.192Z,16.70
2023-07-02T01:29:54.049Z,16.70
2023-07-02T01:32:21.838Z,16.40
2023-07-02T01:34:50.334Z,16.40
2023-07-02T01:37:20.976Z,16.30
2023-07-02T01:39:48.241Z,16.20
2023-07-02T01:42:17.225Z,16.00
2023-07-02T01:44:45.559Z,15.90
2023-07-02T01:47:12.700Z,16.10
2023-07-02T01:49:40.181Z,16.00
2023-07-02T01:52:07.776Z,16.00
2023-07-02T01:54:36.321Z,15.90
2023-07-02T01:57:03.596Z,15.80
2023-07-02T01:59:30.667Z,15.70
2023-07-02T02:01:57.715Z,15.80
2023-07-02T02:04:25.124Z,15.80
2023-07-02T02:06:53.217Z,15.80
2023-07-02T02:09:20.544Z,15.70
2023-07-02T02:11:50.103Z,16.00
2023-07-02T02:14:17.658Z,16.50
2023-07-02T02:16:48.082Z,16.20
2023-07-02T02:19:16.113Z,16.30
2023-07-02T02:21:43.790Z,16.20
2023-07-02T02:24:11.398Z,16.30
2023-07-02T02:26:38.410Z,16.30
2023-07-02T02:29:05.646Z,16.40
2023-07-02T02:31:32.720Z,16.60
2023-07-02T02:33:59.801Z,16.80
2023-07-02T02:36:27.004Z,16.90
2023-07-02T02:38:53.972Z,17.30
2023-07-02T02:41:21.026Z,17.60
2023-07-02T02:43:48.039Z,17.80
2023-07-02T02:46:24.209Z,17.90
2023-07-02T02:48:52.747Z,17.90
2023-07-02T02:51:19.825Z,18.20
2023-07-02T02:53:47.396Z,19.60
2023-07-02T02:56:14.639Z,18.70
2023-07-02T02:58:41.832Z,18.80
2023-07-02T03:01:12.112Z,18.90
2023-07-02T03:03:47.176Z,19.40
2023-07-02T03:06:16.258Z,19.50
2023-07-02T03:08:44.003Z,19.80
2023-07-02T03:11:11.030Z,20.00
2023-07-02T03:13:38.102Z,20.10
2023-07-02T03:16:05.675Z,20.20
2023-07-02T03:18:32.890Z,20.80
2023-07-02T03:21:01.035Z,21.00
2023-07-02T03:23:28.099Z,22.40
2023-07-02T03:25:55.203Z,23.10
2023-07-02T03:28:22.233Z,23.80
2023-07-02T03:30:49.647Z,23.80
2023-07-02T03:33:17.213Z,23.70
2023-07-02T03:35:44.201Z,23.40
2023-07-02T03:38:11.302Z,24.40
2023-07-02T03:40:38.280Z,24.60
2023-07-02T03:43:06.109Z,24.60
2023-07-02T03:45:33.545Z,24.50
2023-07-02T03:48:00.605Z,24.50
2023-07-02T03:50:27.651Z,25.60
2023-07-02T03:52:54.707Z,24.50
2023-07-02T03:55:21.905Z,24.50
2023-07-02T03:57:48.882Z,24.50
2023-07-02T04:00:16.208Z,24.50
2023-07-02T04:02:43.390Z,24.50
2023-07-02T04:05:10.541Z,24.50
2023-07-02T04:07:37.564Z,24.50
2023-07-02T04:10:04.807Z,24.60
2023-07-02T04:12:32.339Z,24.20
2023-07-02T04:14:59.442Z,24.00
2023-07-02T04:17:26.524Z,24.90
2023-07-02T04:19:56.381Z,23.70
2023-07-02T04:22:23.479Z,23.60
2023-07-02T04:24:50.950Z,23.70
2023-07-02T04:27:47.867Z,23.70
2023-07-02T04:30:09.398Z,23.60
2023-07-02T04:32:36.800Z,23.50
2023-07-02T04:35:04.036Z,23.30
2023-07-02T04:37:31.148Z,23.30
2023-07-02T04:39:58.454Z,23.10
2023-07-02T04:42:28.767Z,23.10
2023-07-02T04:44:56.429Z,23.10
2023-07-02T04:47:23.643Z,22.80
2023-07-02T04:49:50.747Z,23.00
2023-07-02T04:52:17.743Z,23.00
2023-07-02T04:54:44.808Z,22.80
2023-07-02T04:57:11.878Z,22.60
2023-07-02T04:59:38.943Z,22.90
2023-07-02T05:02:05.955Z,23.00
2023-07-02T05:04:33.016Z,22.70
2023-07-02T05:07:01.733Z,22.70
2023-07-02T05:09:28.940Z,22.80
2023-07-02T05:11:55.940Z,22.90
2023-07-02T05:14:24.057Z,23.10
2023-07-02T05:16:51.384Z,23.40
2023-07-02T05:19:18.540Z,23.50
2023-07-02T05:21:45.473Z,23.40
2023-07-02T05:24:12.413Z,23.30
2023-07-02T05:26:39.495Z,23.00
2023-07-02T05:29:06.724Z,22.80
2023-07-02T05:31:35.394Z,22.70
2023-07-02T05:34:02.518Z,22.80
2023-07-02T05:36:29.420Z,22.80
2023-07-02T05:38:56.505Z,22.40
2023-07-02T05:41:23.824Z,21.80
2023-07-02T05:43:50.889Z,21.50
2023-07-02T05:46:17.883Z,21.30
2023-07-02T05:48:44.953Z,21.20
2023-07-02T05:51:12.165Z,20.80
2023-07-02T05:53:39.273Z,20.10
2023-07-02T05:56:06.447Z,19.70
2023-07-02T05:58:46.793Z,19.60
2023-07-02T06:01:15.526Z,19.40
2023-07-02T06:03:44.390Z,19.10
2023-07-02T06:06:12.674Z,18.90
2023-07-02T06:08:41.235Z,19.20
2023-07-02T06:11:08.580Z,18.80
2023-07-02T06:13:35.662Z,18.20
2023-07-02T06:16:02.881Z,17.90
2023-07-02T06:18:30.066Z,17.60
2023-07-02T06:20:57.288Z,17.10
2023-07-02T06:23:24.415Z,17.00
2023-07-02T06:25:54.226Z,17.00
2023-07-02T06:28:21.375Z,17.20
2023-07-02T06:30:49.009Z,16.60
2023-07-02T06:33:16.540Z,14.90
2023-07-02T06:35:43.545Z,13.90
2023-07-02T06:38:10.562Z,14.20
2023-07-02T06:40:37.625Z,14.30
2023-07-02T06:43:04.672Z,14.30
2023-07-02T06:45:31.751Z,14.00
2023-07-02T06:47:59.011Z,14.70
2023-07-02T06:50:26.210Z,14.00
2023-07-02T06:52:53.418Z,13.80
2023-07-02T06:55:20.677Z,13.50
2023-07-02T06:57:48.295Z,13.10
2023-07-02T07:00:16.288Z,12.00
2023-07-02T07:02:43.413Z,11.30
2023-07-02T07:05:11.134Z,10.70
2023-07-02T07:07:38.372Z,10.00
2023-07-02T07:10:06.226Z,9.60
2023-07-02T07:12:33.590Z,9.90
2023-07-02T07:15:00.841Z,9.70
2023-07-02T07:17:27.990Z,9.00
2023-07-02T07:19:55.257Z,7.20
2023-07-02T07:22:22.326Z,6.50
2023-07-02T07:24:49.512Z,7.00
2023-07-02T07:27:16.893Z,5.20
2023-07-02T07:29:43.944Z,5.20
2023-07-02T07:32:11.012Z,4.80
2023-07-02T07:34:38.013Z,4.30
2023-07-02T07:37:05.971Z,2.40
2023-07-02T07:39:32.991Z,3.60
2023-07-02T07:42:00.006Z,2.30
2023-07-02T07:44:30.433Z,2.40
2023-07-02T07:46:57.770Z,2.40
2023-07-02T07:49:24.997Z,2.30
2023-07-02T07:51:51.922Z,2.40
2023-07-02T07:54:19.005Z,2.40
2023-07-02T07:56:46.153Z,2.50
2023-07-02T07:59:15.923Z,1.10
2023-07-02T08:01:43.115Z,1.00
2023-07-02T08:04:10.495Z,1.00
2023-07-02T08:06:37.793Z,1.00
2023-07-02T08:09:05.066Z,1.00
2023-07-02T08:11:32.069Z,1.00
2023-07-02T08:13:59.731Z,1.00
2023-07-02T08:16:26.914Z,1.00
2023-07-02T08:18:53.960Z,1.00
2023-07-02T08:21:21.029Z,1.00
2023-07-02T08:23:48.106Z,1.00
2023-07-02T08:26:15.574Z,1.00
2023-07-02T08:28:42.823Z,1.00
2023-07-02T08:31:10.112Z,1.00
2023-07-02T08:33:37.565Z,1.00
2023-07-02T08:36:04.911Z,1.00
2023-07-02T08:38:32.025Z,1.00
2023-07-02T08:40:59.171Z,1.00
2023-07-02T08:43:28.475Z,1.00
2023-07-02T08:45:55.718Z,1.00
2023-07-02T08:48:24.928Z,1.00
2023-07-02T08:50:52.234Z,1.00
2023-07-02T08:53:20.622Z,1.00
2023-07-02T08:55:49.167Z,1.00
2023-07-02T08:58:16.160Z,1.00
2023-07-02T09:01:07.124Z,1.00
2023-07-02T09:03:34.598Z,1.00
2023-07-02T09:06:01.889Z,1.00
2023-07-02T09:08:29.954Z,1.00
2023-07-02T09:11:19.726Z,1.00
2023-07-02T09:13:48.947Z,1.00
2023-07-02T09:16:34.361Z,1.00
2023-07-02T09:19:06.313Z,1.00
2023-07-02T09:21:44.684Z,1.00
2023-07-02T09:24:23.944Z,1.00
2023-07-02T09:26:54.466Z,1.00
2023-07-02T09:29:32.842Z,1.00
2023-07-02T09:32:10.179Z,1.00
2023-07-02T09:34:40.820Z,1.00
2023-07-02T09:37:07.975Z,1.00
2023-07-02T09:39:36.453Z,1.00
2023-07-02T09:42:09.352Z,1.00
2023-07-02T09:44:37.261Z,1.00
2023-07-02T09:47:06.633Z,1.00
2023-07-02T09:49:37.938Z,1.00
2023-07-02T09:52:07.865Z,1.00
2023-07-02T09:54:35.653Z,1.00
2023-07-02T09:57:03.596Z,1.00
2023-07-02T09:59:31.611Z,1.00
2023-07-02T10:01:59.403Z,1.00
2023-07-02T10:04:27.026Z,1.00
2023-07-02T10:06:56.511Z,1.00
2023-07-02T10:09:45.124Z,1.00
2023-07-02T10:12:25.757Z,1.00
2023-07-02T10:14:55.381Z,1.00
2023-07-02T10:17:34.076Z,1.00
2023-07-02T10:20:06.176Z,1.00
2023-07-02T10:22:47.445Z,1.00
2023-07-02T10:25:29.375Z,1.00
2023-07-02T10:27:56.824Z,1.00
2023-07-02T10:30:40.271Z,1.00
2023-07-02T10:33:11.202Z,1.00
2023-07-02T10:35:38.834Z,1.00
2023-07-02T10:38:09.520Z,1.00
2023-07-02T10:40:36.520Z,1.00
2023-07-02T10:43:03.765Z,1.00
2023-07-02T10:45:35.482Z,1.00
2023-07-02T10:48:10.579Z,1.00
2023-07-02T10:50:37.802Z,1.00
2023-07-02T10:53:04.960Z,1.00
2023-07-02T10:55:32.636Z,1.00
2023-07-02T10:58:08.452Z,1.00
2023-07-02T11:00:49.525Z,1.00
2023-07-02T11:03:25.008Z,1.00
2023-07-02T11:05:53.154Z,1.00
2023-07-02T11:08:22.581Z,1.00
2023-07-02T11:10:50.169Z,1.00
2023-07-02T11:13:18.968Z,1.00
2023-07-02T11:15:49.811Z,1.00
2023-07-02T11:18:18.592Z,1.00
2023-07-02T11:20:47.345Z,1.00
2023-07-02T11:23:25.762Z,1.00
2023-07-02T11:26:00.998Z,1.00
2023-07-02T11:28:30.270Z,1.00
2023-07-02T11:30:57.570Z,1.00
2023-07-02T11:33:38.349Z,1.00
2023-07-02T11:36:06.593Z,1.00
2023-07-02T11:38:37.073Z,1.00
2023-07-02T11:41:05.360Z,1.00
2023-07-02T11:43:33.241Z,1.00
2023-07-02T11:46:00.722Z,1.00
2023-07-02T11:48:27.965Z,1.00
2023-07-02T11:50:55.178Z,1.00
2023-07-02T11:53:22.322Z,1.00
2023-07-02T11:55:49.666Z,1.00
2023-07-02T11:58:17.292Z,1.00
2023-07-02T12:00:44.309Z,1.00
2023-07-02T12:03:12.008Z,1.00
2023-07-02T12:05:39.254Z,1.00
2023-07-02T12:08:09.834Z,1.00
2023-07-02T12:10:38.755Z,1.00
2023-07-02T12:13:06.440Z,1.00
2023-07-02T12:15:34.595Z,1.00
2023-07-02T12:18:01.579Z,1.00
2023-07-02T12:20:28.601Z,1.00
2023-07-02T12:22:55.687Z,1.00
2023-07-02T12:25:23.419Z,1.00
2023-07-02T12:27:50.459Z,1.00
2023-07-02T12:30:18.527Z,1.00
2023-07-02T12:32:48.774Z,1.00
2023-07-02T12:35:16.016Z,1.00
2023-07-02T12:37:47.609Z,1.00
2023-07-02T12:40:15.357Z,1.00
2023-07-02T12:42:43.545Z,1.00
2023-07-02T12:45:12.081Z,1.00
2023-07-02T12:47:40.094Z,1.00
2023-07-02T12:50:07.990Z,1.00
2023-07-02T12:52:35.631Z,1.00
2023-07-02T12:55:03.257Z,1.00
2023-07-02T12:57:30.301Z,1.00
2023-07-02T12:59:58.183Z,1.00
2023-07-02T13:02:28.568Z,1.00
2023-07-02T13:04:55.695Z,1.00
2023-07-02T13:07:25.113Z,1.00
2023-07-02T13:09:52.011Z,1.00
2023-07-02T13:12:19.384Z,1.00
2023-07-02T13:14:46.336Z,1.00
2023-07-02T13:17:13.361Z,1.00
2023-07-02T13:19:40.538Z,1.00
2023-07-02T13:22:07.470Z,1.00
2023-07-02T13:24:36.442Z,1.00
2023-07-02T13:27:12.278Z,1.00
2023-07-02T13:29:39.488Z,1.00
2023-07-02T13:32:07.382Z,1.00
2023-07-02T13:34:34.316Z,1.00
2023-07-02T13:37:03.976Z,1.00
2023-07-02T13:39:32.105Z,1.00
2023-07-02T13:41:59.114Z,1.00
2023-07-02T13:44:26.401Z,1.00
2023-07-02T13:46:54.286Z,1.00
2023-07-02T13:49:22.555Z,1.00
2023-07-02T13:51:51.712Z,1.00
2023-07-02T13:54:19.941Z,1.00
2023-07-02T13:56:50.529Z,1.00
2023-07-02T13:59:19.191Z,1.00
2023-07-02T14:01:46.870Z,1.00
2023-07-02T14:04:15.202Z,1.00
2023-07-02T14:06:42.542Z,1.00
2023-07-02T14:09:10.714Z,1.00
2023-07-02T14:11:40.637Z,1.00
2023-07-02T14:14:08.062Z,1.00
2023-07-02T14:16:35.195Z,1.00
2023-07-02T14:19:02.109Z,1.00
2023-07-02T14:21:29.106Z,1.00
2023-07-02T14:23:56.073Z,1.00
2023-07-02T14:26:23.381Z,1.00
2023-07-02T14:28:50.555Z,1.00
2023-07-02T14:31:17.845Z,1.00
2023-07-02T14:33:44.859Z,1.00
2023-07-02T14:36:11.957Z,1.00
2023-07-02T14:38:38.866Z,1.00
2023-07-02T14:41:05.980Z,1.00
2023-07-02T14:43:33.220Z,1.00
2023-07-02T14:46:02.825Z,1.00
2023-07-02T14:48:30.553Z,1.00
2023-07-02T14:51:00.125Z,1.00
2023-07-02T14:53:29.472Z,1.00
2023-07-02T14:55:59.998Z,1.00
2023-07-02T14:58:28.318Z,1.00
2023-07-02T15:00:57.657Z,1.00
2023-07-02T15:03:27.162Z,1.00
2023-07-02T15:05:55.295Z,1.00
2023-07-02T15:08:22.934Z,1.00
2023-07-02T15:10:52.474Z,1.00
2023-07-02T15:13:21.644Z,1.00
2023-07-02T15:15:51.245Z,1.00
2023-07-02T15:18:21.157Z,1.00
2023-07-02T15:20:52.078Z,1.00
2023-07-02T15:23:19.249Z,1.00
2023-07-02T15:25:58.444Z,1.00
2023-07-02T15:28:26.518Z,1.00
2023-07-02T15:30:58.738Z,1.00
2023-07-02T15:33:26.300Z,1.00
2023-07-02T15:35:53.893Z,1.00
2023-07-02T15:38:21.592Z,1.00
2023-07-02T15:40:50.066Z,1.00
2023-07-02T15:43:17.369Z,1.00
2023-07-02T15:45:44.556Z,1.00
2023-07-02T15:48:12.009Z,1.00
2023-07-02T15:50:39.727Z,1.00
2023-07-02T15:53:07.005Z,1.00
2023-07-02T15:55:36.371Z,1.00
2023-07-02T15:58:03.824Z,1.00
2023-07-02T16:00:31.259Z,1.00
2023-07-02T16:02:58.572Z,1.00
2023-07-02T16:05:26.305Z,1.00
2023-07-02T16:07:53.825Z,1.00
2023-07-02T16:10:21.338Z,1.00
2023-07-02T16:12:49.741Z,1.00
2023-07-02T16:15:17.144Z,1.00
2023-07-02T16:17:44.265Z,1.00
2023-07-02T16:20:11.939Z,1.00
2023-07-02T16:22:39.223Z,1.00
2023-07-02T16:25:06.684Z,1.00
2023-07-02T16:27:35.417Z,1.00
2023-07-02T16:30:04.368Z,1.00
2023-07-02T16:32:32.812Z,1.00
2023-07-02T16:34:59.991Z,1.00
2023-07-02T16:37:27.417Z,1.00
2023-07-02T16:39:54.869Z,1.00
2023-07-02T16:42:22.270Z,1.00
2023-07-02T16:44:49.476Z,1.00
2023-07-02T16:47:16.754Z,1.00
2023-07-02T16:49:47.714Z,1.00
2023-07-02T16:52:15.691Z,1.00
2023-07-02T16:54:42.904Z,1.00
2023-07-02T16:57:10.764Z,1.00
2023-07-02T16:59:40.985Z,1.00
2023-07-02T17:02:09.702Z,1.00
2023-07-02T17:04:36.931Z,1.00
2023-07-02T17:07:04.298Z,1.00
2023-07-02T17:09:34.478Z,1.00
2023-07-02T17:12:04.085Z,1.00
2023-07-02T17:14:34.617Z,1.00
2023-07-02T17:17:04.933Z,1.00
2023-07-02T17:19:34.807Z,1.00
2023-07-02T17:22:04.125Z,1.00
2023-07-02T17:24:34.385Z,1.00
2023-07-02T17:27:02.811Z,1.00
2023-07-02T17:29:33.010Z,1.00
2023-07-02T17:32:03.600Z,1.00
2023-07-02T17:34:32.315Z,1.00
2023-07-02T17:37:02.424Z,1.00
2023-07-02T17:39:30.776Z,1.00
2023-07-02T17:41:59.035Z,1.00
2023-07-02T17:44:29.061Z,1.00
2023-07-02T17:47:02.193Z,1.00
2023-07-02T17:49:30.173Z,1.00
2023-07-02T17:51:57.467Z,1.00
2023-07-02T17:54:26.994Z,1.00
2023-07-02T17:56:55.588Z,1.00
2023-07-02T17:59:24.438Z,1.00
2023-07-02T18:01:52.006Z,1.00
2023-07-02T18:04:21.594Z,1.00
2023-07-02T18:06:49.158Z,1.00
2023-07-02T18:09:16.828Z,1.00
2023-07-02T18:11:43.980Z,1.00
2023-07-02T18:14:11.170Z,1.00
2023-07-02T18:16:38.422Z,1.00
2023-07-02T18:19:05.584Z,1.00
2023-07-02T18:21:32.572Z,1.00
2023-07-02T18:24:01.308Z,1.00
2023-07-02T18:26:28.817Z,1.00
2023-07-02T18:28:55.815Z,1.00
2023-07-02T18:31:22.929Z,1.00
2023-07-02T18:33:50.446Z,1.00
2023-07-02T18:36:17.952Z,1.00
2023-07-02T18:38:45.237Z,1.00
2023-07-02T18:41:13.120Z,1.00
2023-07-02T18:43:41.309Z,1.00
2023-07-02T18:46:08.650Z,1.00
2023-07-02T18:48:35.876Z,1.00
2023-07-02T18:51:07.320Z,1.00
2023-07-02T18:53:35.596Z,1.00
2023-07-02T18:56:05.500Z,1.00
2023-07-02T18:58:33.889Z,1.00
2023-07-02T19:01:07.095Z,1.00
2023-07-02T19:03:34.299Z,1.00
2023-07-02T19:06:08.444Z,1.00
2023-07-02T19:08:36.319Z,1.00
2023-07-02T19:11:08.453Z,1.00
2023-07-02T19:13:36.352Z,1.00
2023-07-02T19:16:03.999Z,1.00
2023-07-02T19:18:31.813Z,1.00
2023-07-02T19:21:00.819Z,1.00
2023-07-02T19:23:32.160Z,1.00
2023-07-02T19:25:59.927Z,1.00
2023-07-02T19:28:27.016Z,1.00
2023-07-02T19:30:57.942Z,1.00
2023-07-02T19:33:25.262Z,1.00
2023-07-02T19:35:52.440Z,1.00
2023-07-02T19:38:19.666Z,1.00
2023-07-02T19:40:57.474Z,1.00
2023-07-02T19:43:28.244Z,1.00
2023-07-02T19:45:59.523Z,1.00
2023-07-02T19:48:26.810Z,1.00
2023-07-02T19:51:05.231Z,1.00
2023-07-02T19:53:34.841Z,1.00
2023-07-02T19:56:07.089Z,1.00
2023-07-02T19:58:34.769Z,1.00
2023-07-02T20:01:02.053Z,1.00
2023-07-02T20:03:29.461Z,1.00
2023-07-02T20:05:57.069Z,1.00
2023-07-02T20:08:24.500Z,1.00
2023-07-02T20:10:52.796Z,1.00
2023-07-02T20:13:19.753Z,1.00
2023-07-02T20:15:47.203Z,1.00
2023-07-02T20:18:14.804Z,1.00
2023-07-02T20:20:41.970Z,1.00
2023-07-02T20:23:09.201Z,1.00
2023-07-02T20:25:50.012Z,1.00
2023-07-02T20:28:26.781Z,1.00
2023-07-02T20:30:53.902Z,1.00
2023-07-02T20:33:23.859Z,1.00
2023-07-02T20:35:51.125Z,1.00
2023-07-02T20:38:18.414Z,1.00
2023-07-02T20:40:45.509Z,1.00
2023-07-02T20:43:15.465Z,1.00
2023-07-02T20:45:42.933Z,1.00
2023-07-02T20:48:11.131Z,1.00
2023-07-02T20:50:38.335Z,1.00
2023-07-02T20:53:06.434Z,1.00
2023-07-02T20:55:33.479Z,1.00
2023-07-02T20:58:00.523Z,1.00
2023-07-02T21:00:28.240Z,1.00
2023-07-02T21:02:55.384Z,1.00
2023-07-02T21:05:22.424Z,1.00
2023-07-02T21:07:49.979Z,1.00
2023-07-02T21:10:17.294Z,1.00
2023-07-02T21:12:44.305Z,1.00
2023-07-02T21:15:11.422Z,1.00
2023-07-02T21:17:38.720Z,1.00
2023-07-02T21:20:06.514Z,1.00
2023-07-02T21:22:33.609Z,1.00
2023-07-02T21:25:00.668Z,1.00
2023-07-02T21:27:27.607Z,1.00
2023-07-02T21:29:55.267Z,1.00
2023-07-02T21:32:23.114Z,1.00
2023-07-02T21:34:52.420Z,1.00
2023-07-02T21:37:19.442Z,1.00
2023-07-02T21:39:46.692Z,1.00
2023-07-02T21:42:14.006Z,1.00
2023-07-02T21:44:41.099Z,1.00
2023-07-02T21:47:08.193Z,1.00
2023-07-02T21:49:36.462Z,1.00
2023-07-02T21:52:04.148Z,1.00
2023-07-02T21:54:31.134Z,1.00
2023-07-02T21:56:58.143Z,1.00
2023-07-02T21:59:26.974Z,1.00
2023-07-02T22:01:55.105Z,1.00
2023-07-02T22:04:22.392Z,1.00
2023-07-02T22:06:49.391Z,1.00
2023-07-02T22:09:19.443Z,1.00
2023-07-02T22:11:46.482Z,1.00
2023-07-02T22:14:13.645Z,1.00
2023-07-02T22:16:40.753Z,1.00
2023-07-02T22:19:08.567Z,1.00
2023-07-02T22:21:36.077Z,1.00
2023-07-02T22:24:03.215Z,1.00
2023-07-02T22:26:30.219Z,1.00
2023-07-02T22:28:57.132Z,1.00
2023-07-02T22:31:24.367Z,1.00
2023-07-02T22:33:51.377Z,1.00
2023-07-02T22:36:18.513Z,1.00
2023-07-02T22:38:45.483Z,1.00
2023-07-02T22:41:12.523Z,1.00
2023-07-02T22:43:39.804Z,1.00
2023-07-02T22:46:06.999Z,1.00
2023-07-02T22:48:34.190Z,1.00
2023-07-02T22:51:01.276Z,1.00
2023-07-02T22:53:28.453Z,1.00
2023-07-02T22:55:55.538Z,1.00
2023-07-02T22:58:22.630Z,1.00
2023-07-02T23:00:49.645Z,1.00
2023-07-02T23:03:19.432Z,1.00
2023-07-02T23:05:46.789Z,1.00
2023-07-02T23:08:13.975Z,1.00
2023-07-02T23:10:41.244Z,1.00
2023-07-02T23:13:08.165Z,1.00
2023-07-02T23:15:35.126Z,1.00
2023-07-02T23:18:02.234Z,1.00
2023-07-02T23:20:29.398Z,1.00
2023-07-02T23:22:56.372Z,1.00
2023-07-02T23:25:26.900Z,1.00
2023-07-02T23:28:03.679Z,1.00
2023-07-02T23:30:35.100Z,1.00
2023-07-02T23:33:06.553Z,1.00
2023-07-02T23:35:34.489Z,1.00
2023-07-02T23:38:03.445Z,1.00
2023-07-02T23:40:31.094Z,1.00
2023-07-02T23:42:58.013Z,1.00
2023-07-02T23:45:25.843Z,1.00
2023-07-02T23:47:52.915Z,1.00
2023-07-02T23:50:20.275Z,1.00
2023-07-02T23:52:48.358Z,1.00
2023-07-02T23:55:17.591Z,1.00
2023-07-02T23:57:45.769Z,1.00
